Hlavní strana
METAR-TAF:

METAR-TAF

Letiště :

Cornelia, Georgie, Spojené státy americké

zeměpisná šířka: 34-29-59N, zeměpisná délka: 083-33-24W, výška: 441 m

Aktuální stav počasí

Zpráva byla vytvořena před 14 minutami, v 17:55 UTC
Východoseverovýchodní vítr 8 kt
Teplota 10°C
Vlhkost vzduchu 71%
Tlak 1019 hPa
Viditelnost: 11.3 km
Zataženo ve výšce 4900 ft

METAR: KAJR 151755Z AUTO 07008KT 7SM OVC049 10/05 A3010 RMK AO2 T00990045 10099 20058

Čas: 13:09 (18:09 UTC)


TAF: chybějící

Stav a předpovědi počasí z více než 4 000 letišť (zprávy METAR a TAF).

Červené a žluté tečky na mapě představují dostupné meteorologické stanice.

Když kurzor umístíte na tečku, zobrazí se název stanice.

Pak kliknutím zobrazíte stav a předpověď počasí.

Chcete-li změnit mapu, kliknutím na zelené tlačítko se znaménkem +mapu přiblížíte, kliknutím na zelené tlačítko se znaménkem – mapu oddálíte a kliknutím na zelené šipky přejdete na sousední mapy.


METAR-TAF: